This is the latest recevied weather packets stored in our database for station/object IZ5TJI-3. If no packets are shown the sender has not sent any weather packets the latest 10 day(s).
| Time | Temp. | Humidity | Pressure | Rain* | Wind** | Luminosity | Snow |
|---|---|---|---|---|---|---|---|
| 1777791621 | 13.33° C | 68% | 1020 hPa | 0 mm | - | - | - |
| 1777790721 | 12.22° C | 74% | 1019.9 hPa | 0 mm | - | - | - |
| 1777789821 | 11.11° C | 76% | 1020 hPa | 0 mm | - | - | - |
| 1777788921 | 10° C | 78% | 1019.9 hPa | 0 mm | - | - | - |
| 1777788021 | 8.89° C | 80% | 1019.8 hPa | 0 mm | - | - | - |
| 1777787121 | 8.33° C | 81% | 1019.9 hPa | 0 mm | - | - | - |
| 1777786221 | 7.78° C | 83% | 1019.7 hPa | 0 mm | - | - | - |
| 1777785321 | 7.22° C | 84% | 1019.8 hPa | 0 mm | - | - | - |
| 1777784421 | 6.11° C | 85% | 1019.8 hPa | 0 mm | - | - | - |
| 1777783521 | 5.56° C | 84% | 1019.7 hPa | 0 mm | - | - | - |
| 1777782621 | 5.56° C | 84% | 1019.8 hPa | 0 mm | - | - | - |
| 1777781721 | 5.56° C | 83% | 1019.7 hPa | 0 mm | - | - | - |
| 1777780821 | 5.56° C | 82% | 1019.6 hPa | 0 mm | - | - | - |
| 1777779921 | 5.56° C | 82% | 1019.6 hPa | 0 mm | - | - | - |
| 1777779021 | 6.11° C | 83% | 1019.4 hPa | 0 mm | - | - | - |
| 1777778121 | 6.11° C | 82% | 1019.4 hPa | 0 mm | - | - | - |
| 1777777221 | 6.11° C | 82% | 1019.5 hPa | 0 mm | - | - | - |
| 1777776321 | 6.11° C | 82% | 1019.5 hPa | 0 mm | - | - | - |
| 1777775421 | 6.67° C | 80% | 1019.6 hPa | 0 mm | - | - | - |
| 1777774521 | 6.67° C | 80% | 1019.5 hPa | 0 mm | - | - | - |
| 1777773621 | 6.67° C | 79% | 1019.4 hPa | 0 mm | - | - | - |
| 1777772721 | 6.67° C | 79% | 1019.3 hPa | 0 mm | - | - | - |
| 1777771821 | 7.22° C | 78% | 1019.5 hPa | 0 mm | - | - | - |
| 1777770921 | 7.22° C | 78% | 1019.5 hPa | 0 mm | - | - | - |
| 1777770021 | 7.22° C | 77% | 1019.5 hPa | 0 mm | - | - | - |
* Rain latest hour (hover to see other rain measurements)
** Current wind speed in m/s (hover to see current wind gust speed)